EBBR

UTC

Brussels Airport

Steenokkerzeel, Flemish Brabant, Belgium

METAR - Current

EBBR 090420Z 08003KT CAVOK 15/12 Q1013 NOSIG

Observed

Jun 09 04:20 UTC

Flight Rules

VFR

Wind

080° at 3 KTS

Visibility

10,000+ M

Clouds

  • Clear skies

Temperature

15°C=59°F

Dew Point

12°C=54°F

Humidity

82%

Altimeter

29.91 Hg

Pressure

1013.0 hPa

METAR - Previous

EBBR 090350Z 08003KT CAVOK 14/12 Q1013 NOSIG

Observed

Jun 09 03:50 UTC

Flight Rules

VFR

Wind

080° at 3 KTS

Visibility

10,000+ M

Clouds

  • Clear skies

Temperature

14°C=57°F

Dew Point

12°C=54°F

Humidity

88%

Altimeter

29.91 Hg

Pressure

1013.0 hPa